sensor_id;sensor_type;location;lat;lon;timestamp;temperature;humidity
15937;DHT22;9163;48.818;8.976;2022-12-07T00:01:52;2.80;99.90
15937;DHT22;9163;48.818;8.976;2022-12-07T00:04:20;2.80;99.90
15937;DHT22;9163;48.818;8.976;2022-12-07T00:06:51;2.80;99.90
15937;DHT22;9163;48.818;8.976;2022-12-07T00:09:19;2.80;99.90
15937;DHT22;9163;48.818;8.976;2022-12-07T00:11:49;2.80;99.90
15937;DHT22;9163;48.818;8.976;2022-12-07T00:14:17;2.80;99.90
15937;DHT22;9163;48.818;8.976;2022-12-07T00:16:45;2.70;99.90
15937;DHT22;9163;48.818;8.976;2022-12-07T00:19:13;2.70;99.90
15937;DHT22;9163;48.818;8.976;2022-12-07T00:21:41;2.70;99.90
15937;DHT22;9163;48.818;8.976;2022-12-07T00:24:11;2.70;99.90
15937;DHT22;9163;48.818;8.976;2022-12-07T00:26:40;2.70;99.90
15937;DHT22;9163;48.818;8.976;2022-12-07T00:29:11;2.70;99.90
15937;DHT22;9163;48.818;8.976;2022-12-07T00:31:40;2.70;99.90
15937;DHT22;9163;48.818;8.976;2022-12-07T00:34:11;2.70;99.90
15937;DHT22;9163;48.818;8.976;2022-12-07T00:36:38;2.60;99.90
15937;DHT22;9163;48.818;8.976;2022-12-07T00:39:06;2.60;99.90
15937;DHT22;9163;48.818;8.976;2022-12-07T00:41:34;2.60;99.90
15937;DHT22;9163;48.818;8.976;2022-12-07T00:44:02;2.60;99.90
15937;DHT22;9163;48.818;8.976;2022-12-07T00:46:30;2.60;99.90
15937;DHT22;9163;48.818;8.976;2022-12-07T00:48:57;2.50;99.90
15937;DHT22;9163;48.818;8.976;2022-12-07T00:51:25;2.50;99.90
15937;DHT22;9163;48.818;8.976;2022-12-07T00:53:53;2.50;99.90
15937;DHT22;9163;48.818;8.976;2022-12-07T00:56:22;2.50;99.90
15937;DHT22;9163;48.818;8.976;2022-12-07T00:58:53;2.40;99.90
15937;DHT22;9163;48.818;8.976;2022-12-07T01:01:22;2.40;99.90
15937;DHT22;9163;48.818;8.976;2022-12-07T01:03:49;2.40;99.90
15937;DHT22;9163;48.818;8.976;2022-12-07T01:06:18;2.50;99.90
15937;DHT22;9163;48.818;8.976;2022-12-07T01:08:46;2.40;99.90
15937;DHT22;9163;48.818;8.976;2022-12-07T01:11:15;2.40;99.90
15937;DHT22;9163;48.818;8.976;2022-12-07T01:13:44;2.30;99.90
15937;DHT22;9163;48.818;8.976;2022-12-07T01:16:15;2.20;99.90
15937;DHT22;9163;48.818;8.976;2022-12-07T01:18:45;2.30;99.90
15937;DHT22;9163;48.818;8.976;2022-12-07T01:21:14;2.30;99.90
15937;DHT22;9163;48.818;8.976;2022-12-07T01:23:42;2.30;99.90
15937;DHT22;9163;48.818;8.976;2022-12-07T01:26:11;2.30;99.90
15937;DHT22;9163;48.818;8.976;2022-12-07T01:28:39;2.30;99.90
15937;DHT22;9163;48.818;8.976;2022-12-07T01:31:08;2.30;99.90
15937;DHT22;9163;48.818;8.976;2022-12-07T01:33:40;2.30;99.90
15937;DHT22;9163;48.818;8.976;2022-12-07T01:36:15;2.30;99.90
15937;DHT22;9163;48.818;8.976;2022-12-07T01:38:43;2.30;99.90
15937;DHT22;9163;48.818;8.976;2022-12-07T01:41:11;2.30;99.90
15937;DHT22;9163;48.818;8.976;2022-12-07T01:44:14;2.30;99.90
15937;DHT22;9163;48.818;8.976;2022-12-07T01:46:43;2.30;99.90
15937;DHT22;9163;48.818;8.976;2022-12-07T01:49:15;2.20;99.90
15937;DHT22;9163;48.818;8.976;2022-12-07T01:51:43;2.30;99.90
15937;DHT22;9163;48.818;8.976;2022-12-07T01:54:13;2.30;99.90
15937;DHT22;9163;48.818;8.976;2022-12-07T01:56:51;2.30;99.90
15937;DHT22;9163;48.818;8.976;2022-12-07T01:59:23;2.30;99.90
15937;DHT22;9163;48.818;8.976;2022-12-07T02:01:52;2.30;99.90
15937;DHT22;9163;48.818;8.976;2022-12-07T02:04:20;2.40;99.90
15937;DHT22;9163;48.818;8.976;2022-12-07T02:06:48;2.40;99.90
15937;DHT22;9163;48.818;8.976;2022-12-07T02:09:18;2.40;99.90
15937;DHT22;9163;48.818;8.976;2022-12-07T02:11:45;2.40;99.90
15937;DHT22;9163;48.818;8.976;2022-12-07T02:14:13;2.30;99.90
15937;DHT22;9163;48.818;8.976;2022-12-07T02:16:50;2.40;99.90
15937;DHT22;9163;48.818;8.976;2022-12-07T02:22:59;2.30;99.90
15937;DHT22;9163;48.818;8.976;2022-12-07T02:25:41;2.30;99.90
15937;DHT22;9163;48.818;8.976;2022-12-07T02:28:20;2.30;99.90
15937;DHT22;9163;48.818;8.976;2022-12-07T02:30:55;2.30;99.90
15937;DHT22;9163;48.818;8.976;2022-12-07T02:33:29;2.30;99.90
15937;DHT22;9163;48.818;8.976;2022-12-07T02:36:01;2.30;99.90
15937;DHT22;9163;48.818;8.976;2022-12-07T02:38:36;2.20;99.90
15937;DHT22;9163;48.818;8.976;2022-12-07T02:41:07;2.10;99.90
15937;DHT22;9163;48.818;8.976;2022-12-07T02:43:39;2.20;99.90
15937;DHT22;9163;48.818;8.976;2022-12-07T02:46:09;2.20;99.90
15937;DHT22;9163;48.818;8.976;2022-12-07T02:48:39;2.10;99.90
15937;DHT22;9163;48.818;8.976;2022-12-07T02:51:07;2.10;99.90
15937;DHT22;9163;48.818;8.976;2022-12-07T02:53:36;2.00;99.90
15937;DHT22;9163;48.818;8.976;2022-12-07T02:56:09;2.00;99.90
15937;DHT22;9163;48.818;8.976;2022-12-07T02:58:49;2.00;99.90
15937;DHT22;9163;48.818;8.976;2022-12-07T03:01:28;2.00;99.90
15937;DHT22;9163;48.818;8.976;2022-12-07T03:04:07;2.00;99.90
15937;DHT22;9163;48.818;8.976;2022-12-07T03:06:43;2.00;99.90
15937;DHT22;9163;48.818;8.976;2022-12-07T03:09:21;2.10;99.90
15937;DHT22;9163;48.818;8.976;2022-12-07T03:11:53;2.00;99.90
15937;DHT22;9163;48.818;8.976;2022-12-07T03:14:25;1.90;99.90
15937;DHT22;9163;48.818;8.976;2022-12-07T03:17:02;2.00;99.90
15937;DHT22;9163;48.818;8.976;2022-12-07T03:19:32;1.90;99.90
15937;DHT22;9163;48.818;8.976;2022-12-07T03:22:03;1.90;99.90
15937;DHT22;9163;48.818;8.976;2022-12-07T03:24:36;1.90;99.90
15937;DHT22;9163;48.818;8.976;2022-12-07T03:27:08;1.90;99.90
15937;DHT22;9163;48.818;8.976;2022-12-07T03:29:39;1.90;99.90
15937;DHT22;9163;48.818;8.976;2022-12-07T03:32:14;1.90;99.90
15937;DHT22;9163;48.818;8.976;2022-12-07T03:34:47;1.90;99.90
15937;DHT22;9163;48.818;8.976;2022-12-07T03:37:18;1.90;99.90
15937;DHT22;9163;48.818;8.976;2022-12-07T03:39:57;1.80;99.90
15937;DHT22;9163;48.818;8.976;2022-12-07T03:42:27;1.80;99.90
15937;DHT22;9163;48.818;8.976;2022-12-07T03:44:54;1.80;99.90
15937;DHT22;9163;48.818;8.976;2022-12-07T03:47:26;1.90;99.90
15937;DHT22;9163;48.818;8.976;2022-12-07T03:49:58;1.80;99.90
15937;DHT22;9163;48.818;8.976;2022-12-07T03:52:30;1.80;99.90
15937;DHT22;9163;48.818;8.976;2022-12-07T03:55:03;1.80;99.90
15937;DHT22;9163;48.818;8.976;2022-12-07T03:57:33;1.80;99.90
15937;DHT22;9163;48.818;8.976;2022-12-07T04:00:04;1.80;99.90
15937;DHT22;9163;48.818;8.976;2022-12-07T04:02:33;1.80;99.90
15937;DHT22;9163;48.818;8.976;2022-12-07T04:05:01;1.80;99.90
15937;DHT22;9163;48.818;8.976;2022-12-07T04:07:28;1.90;99.90
15937;DHT22;9163;48.818;8.976;2022-12-07T04:09:56;1.80;99.90
15937;DHT22;9163;48.818;8.976;2022-12-07T04:12:23;1.80;99.90
15937;DHT22;9163;48.818;8.976;2022-12-07T04:14:51;1.80;99.90
15937;DHT22;9163;48.818;8.976;2022-12-07T04:17:18;1.80;99.90
15937;DHT22;9163;48.818;8.976;2022-12-07T04:19:47;1.80;99.90
15937;DHT22;9163;48.818;8.976;2022-12-07T04:22:15;1.80;99.90
15937;DHT22;9163;48.818;8.976;2022-12-07T04:24:42;1.80;99.90
15937;DHT22;9163;48.818;8.976;2022-12-07T04:27:09;1.80;99.90
15937;DHT22;9163;48.818;8.976;2022-12-07T04:29:37;1.80;99.90
15937;DHT22;9163;48.818;8.976;2022-12-07T04:32:04;1.80;99.90
15937;DHT22;9163;48.818;8.976;2022-12-07T04:34:32;1.80;99.90
15937;DHT22;9163;48.818;8.976;2022-12-07T04:37:00;1.70;99.90
15937;DHT22;9163;48.818;8.976;2022-12-07T04:39:29;1.70;99.90
15937;DHT22;9163;48.818;8.976;2022-12-07T04:41:57;1.60;99.90
15937;DHT22;9163;48.818;8.976;2022-12-07T04:44:26;1.60;99.90
15937;DHT22;9163;48.818;8.976;2022-12-07T04:46:54;1.50;99.90
15937;DHT22;9163;48.818;8.976;2022-12-07T04:49:23;1.50;99.90
15937;DHT22;9163;48.818;8.976;2022-12-07T04:51:51;1.40;99.90
15937;DHT22;9163;48.818;8.976;2022-12-07T04:54:20;1.40;99.90
15937;DHT22;9163;48.818;8.976;2022-12-07T04:56:48;1.40;99.90
15937;DHT22;9163;48.818;8.976;2022-12-07T04:59:16;1.40;99.90
15937;DHT22;9163;48.818;8.976;2022-12-07T05:01:44;1.40;99.90
15937;DHT22;9163;48.818;8.976;2022-12-07T05:04:11;1.40;99.90
15937;DHT22;9163;48.818;8.976;2022-12-07T05:06:38;1.30;99.90
15937;DHT22;9163;48.818;8.976;2022-12-07T05:09:06;1.30;99.90
15937;DHT22;9163;48.818;8.976;2022-12-07T05:11:34;1.30;99.90
15937;DHT22;9163;48.818;8.976;2022-12-07T05:14:07;1.30;99.90
15937;DHT22;9163;48.818;8.976;2022-12-07T05:16:35;1.30;99.90
15937;DHT22;9163;48.818;8.976;2022-12-07T05:19:03;1.20;99.90
15937;DHT22;9163;48.818;8.976;2022-12-07T05:21:30;1.10;99.90
15937;DHT22;9163;48.818;8.976;2022-12-07T05:23:57;1.10;99.90
15937;DHT22;9163;48.818;8.976;2022-12-07T05:26:25;1.00;99.90
15937;DHT22;9163;48.818;8.976;2022-12-07T05:28:55;0.90;99.90
15937;DHT22;9163;48.818;8.976;2022-12-07T05:31:24;0.70;99.90
15937;DHT22;9163;48.818;8.976;2022-12-07T05:33:52;0.70;99.90
15937;DHT22;9163;48.818;8.976;2022-12-07T05:36:19;0.70;99.90
15937;DHT22;9163;48.818;8.976;2022-12-07T05:38:47;0.60;99.90
15937;DHT22;9163;48.818;8.976;2022-12-07T05:41:16;0.60;99.90
15937;DHT22;9163;48.818;8.976;2022-12-07T05:43:59;0.60;99.90
15937;DHT22;9163;48.818;8.976;2022-12-07T05:46:26;0.60;99.90
15937;DHT22;9163;48.818;8.976;2022-12-07T05:48:54;0.70;99.90
15937;DHT22;9163;48.818;8.976;2022-12-07T05:51:21;0.70;99.90
15937;DHT22;9163;48.818;8.976;2022-12-07T05:53:48;0.70;99.90
15937;DHT22;9163;48.818;8.976;2022-12-07T05:56:16;0.70;99.90
15937;DHT22;9163;48.818;8.976;2022-12-07T05:58:43;0.80;99.90
15937;DHT22;9163;48.818;8.976;2022-12-07T06:01:29;0.80;99.90
15937;DHT22;9163;48.818;8.976;2022-12-07T06:03:57;0.70;99.90
15937;DHT22;9163;48.818;8.976;2022-12-07T06:06:24;0.60;99.90
15937;DHT22;9163;48.818;8.976;2022-12-07T06:08:51;0.60;99.90
15937;DHT22;9163;48.818;8.976;2022-12-07T06:11:19;0.70;99.90
15937;DHT22;9163;48.818;8.976;2022-12-07T06:14:04;0.70;99.90
15937;DHT22;9163;48.818;8.976;2022-12-07T06:16:32;0.80;99.90
15937;DHT22;9163;48.818;8.976;2022-12-07T06:19:00;0.90;99.90
15937;DHT22;9163;48.818;8.976;2022-12-07T06:21:27;1.00;99.90
15937;DHT22;9163;48.818;8.976;2022-12-07T06:23:55;1.10;99.90
15937;DHT22;9163;48.818;8.976;2022-12-07T06:26:22;1.20;99.90
15937;DHT22;9163;48.818;8.976;2022-12-07T06:28:49;1.20;99.90
15937;DHT22;9163;48.818;8.976;2022-12-07T06:31:17;1.20;99.90
15937;DHT22;9163;48.818;8.976;2022-12-07T06:33:45;1.20;99.90
15937;DHT22;9163;48.818;8.976;2022-12-07T06:36:13;1.30;99.90
15937;DHT22;9163;48.818;8.976;2022-12-07T06:38:40;1.30;99.90
15937;DHT22;9163;48.818;8.976;2022-12-07T06:41:07;1.30;99.90
15937;DHT22;9163;48.818;8.976;2022-12-07T06:43:35;1.30;99.90
15937;DHT22;9163;48.818;8.976;2022-12-07T06:46:02;1.40;99.90
15937;DHT22;9163;48.818;8.976;2022-12-07T06:48:29;1.30;99.90
15937;DHT22;9163;48.818;8.976;2022-12-07T06:51:00;1.30;99.90
15937;DHT22;9163;48.818;8.976;2022-12-07T06:53:28;1.30;99.90
15937;DHT22;9163;48.818;8.976;2022-12-07T06:55:55;1.20;99.90
15937;DHT22;9163;48.818;8.976;2022-12-07T06:58:22;1.20;99.90
15937;DHT22;9163;48.818;8.976;2022-12-07T07:00:50;1.20;99.90
15937;DHT22;9163;48.818;8.976;2022-12-07T07:03:20;1.20;99.90
15937;DHT22;9163;48.818;8.976;2022-12-07T07:06:00;1.20;99.90
15937;DHT22;9163;48.818;8.976;2022-12-07T07:08:29;1.20;99.90
15937;DHT22;9163;48.818;8.976;2022-12-07T07:10:56;1.20;99.90
15937;DHT22;9163;48.818;8.976;2022-12-07T07:13:24;1.30;99.90
15937;DHT22;9163;48.818;8.976;2022-12-07T07:15:51;1.30;99.90
15937;DHT22;9163;48.818;8.976;2022-12-07T07:18:19;1.30;99.90
15937;DHT22;9163;48.818;8.976;2022-12-07T07:20:46;1.40;99.90
15937;DHT22;9163;48.818;8.976;2022-12-07T07:23:15;1.40;99.90
15937;DHT22;9163;48.818;8.976;2022-12-07T07:25:42;1.40;99.90
15937;DHT22;9163;48.818;8.976;2022-12-07T07:28:09;1.40;99.90
15937;DHT22;9163;48.818;8.976;2022-12-07T07:30:37;1.50;99.90
15937;DHT22;9163;48.818;8.976;2022-12-07T07:33:06;1.40;99.90
15937;DHT22;9163;48.818;8.976;2022-12-07T07:35:34;1.50;99.90
15937;DHT22;9163;48.818;8.976;2022-12-07T07:38:01;1.50;99.90
15937;DHT22;9163;48.818;8.976;2022-12-07T07:40:30;1.60;99.90
15937;DHT22;9163;48.818;8.976;2022-12-07T07:42:58;1.50;99.90
15937;DHT22;9163;48.818;8.976;2022-12-07T07:45:26;1.60;99.90
15937;DHT22;9163;48.818;8.976;2022-12-07T07:47:54;1.60;99.90
15937;DHT22;9163;48.818;8.976;2022-12-07T07:50:21;1.60;99.90
15937;DHT22;9163;48.818;8.976;2022-12-07T07:52:49;1.70;99.90
15937;DHT22;9163;48.818;8.976;2022-12-07T07:55:16;1.70;99.90
15937;DHT22;9163;48.818;8.976;2022-12-07T07:57:45;1.70;99.90
15937;DHT22;9163;48.818;8.976;2022-12-07T08:00:14;1.70;99.90
15937;DHT22;9163;48.818;8.976;2022-12-07T08:02:42;1.80;99.90
15937;DHT22;9163;48.818;8.976;2022-12-07T08:05:10;1.80;99.90
15937;DHT22;9163;48.818;8.976;2022-12-07T08:07:38;1.80;99.90
15937;DHT22;9163;48.818;8.976;2022-12-07T08:10:07;1.80;99.90
15937;DHT22;9163;48.818;8.976;2022-12-07T08:12:37;1.90;99.90
15937;DHT22;9163;48.818;8.976;2022-12-07T08:15:27;1.90;99.90
15937;DHT22;9163;48.818;8.976;2022-12-07T08:17:55;1.90;99.90
15937;DHT22;9163;48.818;8.976;2022-12-07T08:20:22;1.90;99.90
15937;DHT22;9163;48.818;8.976;2022-12-07T08:22:49;2.00;99.90
15937;DHT22;9163;48.818;8.976;2022-12-07T08:25:17;2.00;99.90
15937;DHT22;9163;48.818;8.976;2022-12-07T08:27:44;2.10;99.90
15937;DHT22;9163;48.818;8.976;2022-12-07T08:30:12;2.10;99.90
15937;DHT22;9163;48.818;8.976;2022-12-07T08:32:41;2.20;99.90
15937;DHT22;9163;48.818;8.976;2022-12-07T08:35:08;2.30;99.90
15937;DHT22;9163;48.818;8.976;2022-12-07T08:37:36;2.40;99.90
15937;DHT22;9163;48.818;8.976;2022-12-07T08:40:04;2.50;99.90
15937;DHT22;9163;48.818;8.976;2022-12-07T08:42:32;2.50;99.90
15937;DHT22;9163;48.818;8.976;2022-12-07T08:45:07;2.60;99.90
15937;DHT22;9163;48.818;8.976;2022-12-07T08:47:35;2.60;99.90
15937;DHT22;9163;48.818;8.976;2022-12-07T08:50:07;2.60;99.90
15937;DHT22;9163;48.818;8.976;2022-12-07T08:52:36;2.60;99.90
15937;DHT22;9163;48.818;8.976;2022-12-07T08:55:05;2.60;99.90
15937;DHT22;9163;48.818;8.976;2022-12-07T08:57:34;2.60;99.90
15937;DHT22;9163;48.818;8.976;2022-12-07T09:00:04;2.70;99.90
15937;DHT22;9163;48.818;8.976;2022-12-07T09:02:31;2.70;99.90
15937;DHT22;9163;48.818;8.976;2022-12-07T09:04:59;2.70;99.90
15937;DHT22;9163;48.818;8.976;2022-12-07T09:07:27;2.70;99.90
15937;DHT22;9163;48.818;8.976;2022-12-07T09:09:56;2.80;99.90
15937;DHT22;9163;48.818;8.976;2022-12-07T09:12:24;2.70;99.90
15937;DHT22;9163;48.818;8.976;2022-12-07T09:14:51;2.80;99.90
15937;DHT22;9163;48.818;8.976;2022-12-07T09:17:19;2.80;99.90
15937;DHT22;9163;48.818;8.976;2022-12-07T09:19:46;2.80;99.90
15937;DHT22;9163;48.818;8.976;2022-12-07T09:22:13;2.90;99.90
15937;DHT22;9163;48.818;8.976;2022-12-07T09:24:42;3.00;99.90
15937;DHT22;9163;48.818;8.976;2022-12-07T09:27:11;3.00;99.90
15937;DHT22;9163;48.818;8.976;2022-12-07T09:29:39;3.10;99.90
15937;DHT22;9163;48.818;8.976;2022-12-07T09:32:06;3.30;99.90
15937;DHT22;9163;48.818;8.976;2022-12-07T09:34:33;3.30;99.90
15937;DHT22;9163;48.818;8.976;2022-12-07T09:37:01;3.40;99.90
15937;DHT22;9163;48.818;8.976;2022-12-07T09:39:29;3.50;99.90
15937;DHT22;9163;48.818;8.976;2022-12-07T09:41:58;3.70;99.90
15937;DHT22;9163;48.818;8.976;2022-12-07T09:44:26;3.80;99.90
15937;DHT22;9163;48.818;8.976;2022-12-07T09:46:54;3.80;99.90
15937;DHT22;9163;48.818;8.976;2022-12-07T09:49:23;3.90;99.90
15937;DHT22;9163;48.818;8.976;2022-12-07T09:52:01;4.40;99.90
15937;DHT22;9163;48.818;8.976;2022-12-07T09:54:29;4.80;99.90
15937;DHT22;9163;48.818;8.976;2022-12-07T09:56:59;4.70;99.90
15937;DHT22;9163;48.818;8.976;2022-12-07T09:59:26;4.70;99.90
15937;DHT22;9163;48.818;8.976;2022-12-07T10:01:54;4.80;99.90
15937;DHT22;9163;48.818;8.976;2022-12-07T10:04:24;4.60;99.90
15937;DHT22;9163;48.818;8.976;2022-12-07T10:06:51;4.60;99.90
15937;DHT22;9163;48.818;8.976;2022-12-07T10:09:20;4.50;99.90
15937;DHT22;9163;48.818;8.976;2022-12-07T10:12:06;4.30;99.90
15937;DHT22;9163;48.818;8.976;2022-12-07T10:14:36;4.30;99.90
15937;DHT22;9163;48.818;8.976;2022-12-07T10:17:29;4.20;99.90
15937;DHT22;9163;48.818;8.976;2022-12-07T10:20:17;4.10;99.90
15937;DHT22;9163;48.818;8.976;2022-12-07T10:23:08;4.00;99.90
15937;DHT22;9163;48.818;8.976;2022-12-07T10:25:40;4.10;99.90
15937;DHT22;9163;48.818;8.976;2022-12-07T10:28:15;4.10;99.90
15937;DHT22;9163;48.818;8.976;2022-12-07T10:30:48;4.30;99.90
15937;DHT22;9163;48.818;8.976;2022-12-07T10:33:36;4.20;99.90
15937;DHT22;9163;48.818;8.976;2022-12-07T10:36:22;4.30;99.90
15937;DHT22;9163;48.818;8.976;2022-12-07T10:38:51;4.50;99.90
15937;DHT22;9163;48.818;8.976;2022-12-07T10:41:19;4.60;99.90
15937;DHT22;9163;48.818;8.976;2022-12-07T10:43:51;4.50;99.90
15937;DHT22;9163;48.818;8.976;2022-12-07T10:49:36;4.40;99.90
15937;DHT22;9163;48.818;8.976;2022-12-07T10:52:12;4.20;99.90
15937;DHT22;9163;48.818;8.976;2022-12-07T10:54:51;4.20;99.90
15937;DHT22;9163;48.818;8.976;2022-12-07T10:57:33;4.10;99.90
15937;DHT22;9163;48.818;8.976;2022-12-07T11:00:13;4.00;99.90
15937;DHT22;9163;48.818;8.976;2022-12-07T11:03:01;3.80;99.90
15937;DHT22;9163;48.818;8.976;2022-12-07T11:05:38;3.80;99.90
15937;DHT22;9163;48.818;8.976;2022-12-07T11:08:14;3.70;99.90
15937;DHT22;9163;48.818;8.976;2022-12-07T11:10:49;3.60;99.90
15937;DHT22;9163;48.818;8.976;2022-12-07T11:13:25;3.60;99.90
15937;DHT22;9163;48.818;8.976;2022-12-07T11:16:26;3.60;99.90
15937;DHT22;9163;48.818;8.976;2022-12-07T11:19:17;3.60;99.90
15937;DHT22;9163;48.818;8.976;2022-12-07T11:21:52;3.50;99.90
15937;DHT22;9163;48.818;8.976;2022-12-07T11:24:27;3.60;99.90
15937;DHT22;9163;48.818;8.976;2022-12-07T11:27:06;3.60;99.90
15937;DHT22;9163;48.818;8.976;2022-12-07T11:29:56;3.60;99.90
15937;DHT22;9163;48.818;8.976;2022-12-07T11:32:51;3.50;99.90
15937;DHT22;9163;48.818;8.976;2022-12-07T11:35:29;3.50;99.90
15937;DHT22;9163;48.818;8.976;2022-12-07T11:38:02;3.50;99.90
15937;DHT22;9163;48.818;8.976;2022-12-07T11:40:36;3.50;99.90
15937;DHT22;9163;48.818;8.976;2022-12-07T11:43:07;3.50;99.90
15937;DHT22;9163;48.818;8.976;2022-12-07T11:45:41;3.50;99.90
15937;DHT22;9163;48.818;8.976;2022-12-07T11:48:16;3.40;99.90
15937;DHT22;9163;48.818;8.976;2022-12-07T11:50:48;3.40;99.90
15937;DHT22;9163;48.818;8.976;2022-12-07T11:53:20;3.40;99.90
15937;DHT22;9163;48.818;8.976;2022-12-07T11:55:52;3.40;99.90
15937;DHT22;9163;48.818;8.976;2022-12-07T11:58:37;3.30;99.90
15937;DHT22;9163;48.818;8.976;2022-12-07T12:01:21;3.30;99.90
15937;DHT22;9163;48.818;8.976;2022-12-07T12:03:55;3.30;99.90
15937;DHT22;9163;48.818;8.976;2022-12-07T12:06:24;3.20;99.90
15937;DHT22;9163;48.818;8.976;2022-12-07T12:08:56;3.10;99.90
15937;DHT22;9163;48.818;8.976;2022-12-07T12:11:39;3.00;99.90
15937;DHT22;9163;48.818;8.976;2022-12-07T12:14:32;3.00;99.90
15937;DHT22;9163;48.818;8.976;2022-12-07T12:17:25;3.10;99.90
15937;DHT22;9163;48.818;8.976;2022-12-07T12:20:04;3.10;99.90
15937;DHT22;9163;48.818;8.976;2022-12-07T12:22:36;3.10;99.90
15937;DHT22;9163;48.818;8.976;2022-12-07T12:25:21;3.10;99.90
15937;DHT22;9163;48.818;8.976;2022-12-07T12:27:58;3.20;99.90
15937;DHT22;9163;48.818;8.976;2022-12-07T12:30:32;3.30;99.90
15937;DHT22;9163;48.818;8.976;2022-12-07T12:33:14;3.10;99.90
15937;DHT22;9163;48.818;8.976;2022-12-07T12:35:43;3.10;99.90
15937;DHT22;9163;48.818;8.976;2022-12-07T12:38:29;3.10;99.90
15937;DHT22;9163;48.818;8.976;2022-12-07T12:40:57;3.10;99.90
15937;DHT22;9163;48.818;8.976;2022-12-07T12:43:50;3.20;99.90
15937;DHT22;9163;48.818;8.976;2022-12-07T12:46:49;3.20;99.90
15937;DHT22;9163;48.818;8.976;2022-12-07T12:52:52;3.40;99.90
15937;DHT22;9163;48.818;8.976;2022-12-07T12:58:38;3.80;99.90
15937;DHT22;9163;48.818;8.976;2022-12-07T13:04:53;4.20;99.90
15937;DHT22;9163;48.818;8.976;2022-12-07T13:07:47;4.20;99.90
15937;DHT22;9163;48.818;8.976;2022-12-07T13:10:27;3.90;99.90
15937;DHT22;9163;48.818;8.976;2022-12-07T13:12:59;3.70;99.90
15937;DHT22;9163;48.818;8.976;2022-12-07T13:15:35;3.60;99.90
15937;DHT22;9163;48.818;8.976;2022-12-07T13:18:35;3.60;99.90
15937;DHT22;9163;48.818;8.976;2022-12-07T13:23:55;3.40;99.90
15937;DHT22;9163;48.818;8.976;2022-12-07T13:26:36;3.40;99.90
15937;DHT22;9163;48.818;8.976;2022-12-07T13:29:11;3.40;99.90
15937;DHT22;9163;48.818;8.976;2022-12-07T13:31:43;3.50;99.90
15937;DHT22;9163;48.818;8.976;2022-12-07T13:34:32;3.40;99.90
15937;DHT22;9163;48.818;8.976;2022-12-07T13:37:10;3.40;99.90
15937;DHT22;9163;48.818;8.976;2022-12-07T13:39:46;3.30;99.90
15937;DHT22;9163;48.818;8.976;2022-12-07T13:42:22;3.30;99.90
15937;DHT22;9163;48.818;8.976;2022-12-07T13:44:51;3.40;99.90
15937;DHT22;9163;48.818;8.976;2022-12-07T13:47:22;3.30;99.90
15937;DHT22;9163;48.818;8.976;2022-12-07T13:49:55;3.30;99.90
15937;DHT22;9163;48.818;8.976;2022-12-07T13:52:24;3.30;99.90
15937;DHT22;9163;48.818;8.976;2022-12-07T13:54:57;3.40;99.90
15937;DHT22;9163;48.818;8.976;2022-12-07T13:57:27;3.50;99.90
15937;DHT22;9163;48.818;8.976;2022-12-07T13:59:56;3.60;99.90
15937;DHT22;9163;48.818;8.976;2022-12-07T14:02:27;3.70;99.90
15937;DHT22;9163;48.818;8.976;2022-12-07T14:05:07;3.60;99.90
15937;DHT22;9163;48.818;8.976;2022-12-07T14:07:35;3.60;99.90
15937;DHT22;9163;48.818;8.976;2022-12-07T14:10:06;3.70;99.90
15937;DHT22;9163;48.818;8.976;2022-12-07T14:12:36;3.70;99.90
15937;DHT22;9163;48.818;8.976;2022-12-07T14:15:04;3.70;99.90
15937;DHT22;9163;48.818;8.976;2022-12-07T14:17:32;3.70;99.90
15937;DHT22;9163;48.818;8.976;2022-12-07T14:20:00;3.60;99.90
15937;DHT22;9163;48.818;8.976;2022-12-07T14:22:33;3.50;99.90
15937;DHT22;9163;48.818;8.976;2022-12-07T14:25:16;3.50;99.90
15937;DHT22;9163;48.818;8.976;2022-12-07T14:27:51;3.50;99.90
15937;DHT22;9163;48.818;8.976;2022-12-07T14:30:23;3.50;99.90
15937;DHT22;9163;48.818;8.976;2022-12-07T14:32:54;3.40;99.90
15937;DHT22;9163;48.818;8.976;2022-12-07T14:35:22;3.40;99.90
15937;DHT22;9163;48.818;8.976;2022-12-07T14:37:49;3.20;99.90
15937;DHT22;9163;48.818;8.976;2022-12-07T14:40:20;3.20;99.90
15937;DHT22;9163;48.818;8.976;2022-12-07T14:42:51;3.20;99.90
15937;DHT22;9163;48.818;8.976;2022-12-07T14:45:21;3.10;99.90
15937;DHT22;9163;48.818;8.976;2022-12-07T14:47:49;3.10;99.90
15937;DHT22;9163;48.818;8.976;2022-12-07T14:50:18;3.20;99.90
15937;DHT22;9163;48.818;8.976;2022-12-07T14:52:48;3.20;99.90
15937;DHT22;9163;48.818;8.976;2022-12-07T14:55:22;3.10;99.90
15937;DHT22;9163;48.818;8.976;2022-12-07T14:57:52;3.10;99.90
15937;DHT22;9163;48.818;8.976;2022-12-07T15:00:21;3.10;99.90
15937;DHT22;9163;48.818;8.976;2022-12-07T15:02:49;3.00;99.90
15937;DHT22;9163;48.818;8.976;2022-12-07T15:05:17;3.00;99.90
15937;DHT22;9163;48.818;8.976;2022-12-07T15:07:46;3.00;99.90
15937;DHT22;9163;48.818;8.976;2022-12-07T15:10:16;2.90;99.90
15937;DHT22;9163;48.818;8.976;2022-12-07T15:12:45;2.80;99.90
15937;DHT22;9163;48.818;8.976;2022-12-07T15:15:14;2.80;99.90
15937;DHT22;9163;48.818;8.976;2022-12-07T15:17:42;2.70;99.90
15937;DHT22;9163;48.818;8.976;2022-12-07T15:20:12;2.70;99.90
15937;DHT22;9163;48.818;8.976;2022-12-07T15:22:40;2.70;99.90
15937;DHT22;9163;48.818;8.976;2022-12-07T15:25:09;2.60;99.90
15937;DHT22;9163;48.818;8.976;2022-12-07T15:27:39;2.60;99.90
15937;DHT22;9163;48.818;8.976;2022-12-07T15:30:07;2.50;99.90
15937;DHT22;9163;48.818;8.976;2022-12-07T15:32:36;2.50;99.90
15937;DHT22;9163;48.818;8.976;2022-12-07T15:35:04;2.40;99.90
15937;DHT22;9163;48.818;8.976;2022-12-07T15:37:31;2.40;99.90
15937;DHT22;9163;48.818;8.976;2022-12-07T15:39:59;2.40;99.90
15937;DHT22;9163;48.818;8.976;2022-12-07T15:42:26;2.40;99.90
15937;DHT22;9163;48.818;8.976;2022-12-07T15:44:53;2.40;99.90
15937;DHT22;9163;48.818;8.976;2022-12-07T15:47:33;2.40;99.90
15937;DHT22;9163;48.818;8.976;2022-12-07T15:50:03;2.30;99.90
15937;DHT22;9163;48.818;8.976;2022-12-07T15:52:30;2.20;99.90
15937;DHT22;9163;48.818;8.976;2022-12-07T15:54:58;2.20;99.90
15937;DHT22;9163;48.818;8.976;2022-12-07T15:57:28;2.10;99.90
15937;DHT22;9163;48.818;8.976;2022-12-07T15:59:56;2.20;99.90
15937;DHT22;9163;48.818;8.976;2022-12-07T16:02:23;2.20;99.90
15937;DHT22;9163;48.818;8.976;2022-12-07T16:04:51;2.20;99.90
15937;DHT22;9163;48.818;8.976;2022-12-07T16:07:20;2.20;99.90
15937;DHT22;9163;48.818;8.976;2022-12-07T16:09:48;2.20;99.90
15937;DHT22;9163;48.818;8.976;2022-12-07T16:12:16;2.20;99.90
15937;DHT22;9163;48.818;8.976;2022-12-07T16:14:44;2.20;99.90
15937;DHT22;9163;48.818;8.976;2022-12-07T16:17:11;2.20;99.90
15937;DHT22;9163;48.818;8.976;2022-12-07T16:19:38;2.20;99.90
15937;DHT22;9163;48.818;8.976;2022-12-07T16:22:06;2.20;99.90
15937;DHT22;9163;48.818;8.976;2022-12-07T16:24:34;2.20;99.90
15937;DHT22;9163;48.818;8.976;2022-12-07T16:27:02;2.20;99.90
15937;DHT22;9163;48.818;8.976;2022-12-07T16:29:29;2.20;99.90
15937;DHT22;9163;48.818;8.976;2022-12-07T16:31:56;2.20;99.90
15937;DHT22;9163;48.818;8.976;2022-12-07T16:34:24;2.20;99.90
15937;DHT22;9163;48.818;8.976;2022-12-07T16:36:51;2.10;99.90
15937;DHT22;9163;48.818;8.976;2022-12-07T16:39:18;2.10;99.90
15937;DHT22;9163;48.818;8.976;2022-12-07T16:41:47;2.10;99.90
15937;DHT22;9163;48.818;8.976;2022-12-07T16:44:14;2.10;99.90
15937;DHT22;9163;48.818;8.976;2022-12-07T16:46:42;2.10;99.90
15937;DHT22;9163;48.818;8.976;2022-12-07T16:49:11;2.10;99.90